createdAt,value
2022-08-03T00:12:51.260Z,6.40
2022-08-03T00:42:54.227Z,9.80
2022-08-03T01:12:57.665Z,7.57
2022-08-03T01:43:00.919Z,7.20
2022-08-03T02:13:04.385Z,6.97
2022-08-03T02:43:07.353Z,8.27
2022-08-03T03:13:10.724Z,8.93
2022-08-03T03:43:13.545Z,9.43
2022-08-03T04:13:16.762Z,9.73
2022-08-03T04:43:20.526Z,11.40
2022-08-03T05:13:23.839Z,8.40
2022-08-03T05:43:26.552Z,12.53
2022-08-03T06:13:29.787Z,8.63
2022-08-03T06:43:35.925Z,9.03
2022-08-03T07:13:39.131Z,7.53
2022-08-03T07:43:42.288Z,7.33
2022-08-03T08:13:45.976Z,7.80
2022-08-03T08:43:49.255Z,5.10
2022-08-03T09:13:52.802Z,6.65
2022-08-03T09:43:55.494Z,4.07
2022-08-03T10:14:01.506Z,5.57
2022-08-03T10:44:04.454Z,3.73
2022-08-03T11:14:08.311Z,4.80
2022-08-03T11:44:11.134Z,4.63
2022-08-03T12:14:49.050Z,5.33
2022-08-03T12:44:37.304Z,4.47
2022-08-03T13:14:40.586Z,3.47
2022-08-03T13:44:44.022Z,5.00
2022-08-03T14:14:47.852Z,4.67
2022-08-03T14:44:50.814Z,5.17
2022-08-03T15:14:54.193Z,4.57
2022-08-03T15:44:57.387Z,4.75
2022-08-03T16:15:00.714Z,6.90
2022-08-03T16:45:03.951Z,4.00
2022-08-03T17:15:07.247Z,5.77
2022-08-03T17:45:15.846Z,7.50
2022-08-03T18:15:21.203Z,6.70
2022-08-03T18:45:57.794Z,10.57
2022-08-03T19:15:51.362Z,8.67
2022-08-03T19:46:06.451Z,8.53
2022-08-03T20:16:11.010Z,7.73
2022-08-03T20:46:31.700Z,9.03
2022-08-03T21:16:38.417Z,8.75
2022-08-03T21:46:41.173Z,7.83
2022-08-03T22:16:44.868Z,8.50
2022-08-03T22:46:47.591Z,7.93
2022-08-03T23:16:51.209Z,8.43
2022-08-03T23:46:53.945Z,8.70
